Aviation Digital Data Service (ADDS)

Output produced by METARs form (0243 UTC 24 July 2017)
found at http://www.aviationweather.gov/adds/metars/
 
TAF MPPA 231000Z 2312/2418 00000KT 9999 SCT018 SCT090 
     PROB30 
     TEMPO 2318/2322 19005KT 6000 -TSRA SCT015CB BKN090 
     TEMPO 2322/2402 01005KT
       
TAF MPDA 231700Z 2318/2406 22006KT 9999 SCT018 SCT090 
     PROB40 
     TEMPO 2320/2323 6000 TSRA SCT016CB BKN080 
     TEMPO 2402/2406 00000KT
       
TAF MPMG 231700Z 2318/2406 15006KT 9999 SCT018 SCT090 
     PROB30 
     TEMPO 2319/2323 6000 TSRA SCT015CB BKN090 
     TEMPO 2402/2406 00000KT
       
TAF MPTO 231000Z 2312/2418 28006KT 9999 SCT018 SCT090 
     TEMPO 2314/2318 04006KT 
     PROB30 
     TEMPO 2318/2322 19005KT 6000 -TSRA SCT015CB BKN090